Antonello — IKVS — position and weather

sailwx.info

Track history (hours):
 
Tides and Currents Weather Stations Pressure Air Temp Water Temp Dewpoint Dewpoint Depression Visibility Wind Speed Wind Dir Waves Ship Positions

Antonello

Last reported at 2017-Sep-24 07:42 UTC. Time now 2017-Sep-24 14:02 UTC.
Position N 38°27' E 015°54'.

Length 70 m; draft 4.2 m.

Type: Ship. MMSI: 247422000.

Date/timePositionNaut miles runAvg speedWind from/ knotsBaromVisibWave heightAir tempDewpointWater temp
2017-Sep-24 07:42N 38°27' E 015°54'9 6.1
2017-Sep-24 06:18N 38°30' E 015°44'3 8.0
2017-Sep-24 05:58N 38°31' E 015°41'4 7.7
2017-Sep-24 05:28N 38°32' E 015°36'4 7.9
2017-Sep-24 04:58N 38°33' E 015°32'4 8.5
2017-Sep-24 04:27N 38°34' E 015°26'4 8.4
2017-Sep-24 03:58N 38°36' E 015°21'4 8.5
2017-Sep-24 03:29N 38°37' E 015°16'5 8.5
2017-Sep-24 02:53N 38°38' E 015°10'3 8.2
2017-Sep-24 02:30N 38°39' E 015°06'12 0.2
2017-Sep-22 02:00N 38°28' E 014°59'0 0.0
2017-Sep-22 01:29N 38°28' E 014°59'0 0.0
2017-Sep-22 01:00N 38°28' E 014°59'0 0.0
2017-Sep-22 00:29N 38°28' E 014°59'0 0.0
2017-Sep-21 23:59N 38°28' E 014°59'0 0.0
2017-Sep-21 23:30N 38°28' E 014°59'0 0.0
2017-Sep-21 23:00N 38°28' E 014°59'0 0.0
2017-Sep-21 22:30N 38°28' E 014°59'0 0.0
2017-Sep-21 21:51N 38°28' E 014°59'0 0.0
2017-Sep-21 21:29N 38°28' E 014°59'0 0.0
2017-Sep-21 21:00N 38°28' E 014°59'0 0.4
2017-Sep-21 20:28N 38°28' E 014°58'0 0.6
2017-Sep-21 20:00N 38°28' E 014°58'4 7.4
2017-Sep-21 19:30N 38°27' E 015°03'4 7.6
2017-Sep-21 19:00N 38°27' E 015°08'4 7.6
2017-Sep-21 18:31N 38°27' E 015°13'4 7.5
2017-Sep-21 18:00N 38°27' E 015°17'4 7.4
2017-Sep-21 17:30N 38°27' E 015°22'4 7.3
2017-Sep-21 17:00N 38°28' E 015°27'4 7.3
2017-Sep-21 16:30N 38°28' E 015°31'4 7.4
2017-Sep-21 16:00N 38°28' E 015°36'4 7.7
2017-Sep-21 15:30N 38°28' E 015°41'4 7.3
2017-Sep-21 15:00N 38°28' E 015°46'4 7.1
2017-Sep-21 14:30N 38°27' E 015°50'3 6.3
2017-Sep-21 14:00N 38°27' E 015°54'0 0.0
2017-Sep-21 13:29N 38°27' E 015°54'0 0.0
2017-Sep-21 12:55N 38°27' E 015°54'0 0.0
2017-Sep-21 12:25N 38°27' E 015°54'0 0.0
2017-Sep-21 11:59N 38°27' E 015°54'0 0.0
2017-Sep-21 11:25N 38°27' E 015°54'0 0.0
2017-Sep-21 10:51N 38°27' E 015°54'0 0.0
2017-Sep-21 10:21N 38°27' E 015°54'0 0.0
2017-Sep-21 09:59N 38°27' E 015°54'0 0.0
2017-Sep-21 09:18N 38°27' E 015°54'0 0.0
2017-Sep-21 08:48N 38°27' E 015°54'0 0.0
2017-Sep-21 08:29N 38°27' E 015°54'0 0.0
2017-Sep-21 07:57N 38°27' E 015°54'0 0.0
2017-Sep-21 07:30N 38°27' E 015°54'0 0.0
2017-Sep-21 07:00N 38°27' E 015°54'0 0.6
2017-Sep-21 06:30N 38°27' E 015°54'2 3.3
2017-Sep-21 05:59N 38°27' E 015°52'2 3.4
2017-Sep-21 05:30N 38°27' E 015°50'3 5.7
2017-Sep-21 05:00N 38°27' E 015°46'4 8.5
2017-Sep-21 04:30N 38°27' E 015°41'4 8.5
2017-Sep-21 04:00N 38°27' E 015°35'4 8.7
2017-Sep-21 03:30N 38°27' E 015°30'4 8.8
2017-Sep-21 03:00N 38°27' E 015°24'4 8.8
2017-Sep-21 02:30N 38°28' E 015°18'5 9.1
2017-Sep-21 01:59N 38°28' E 015°12'5 8.9
2017-Sep-21 01:27N 38°28' E 015°06'4 8.8
2017-Sep-21 01:00N 38°28' E 015°01'3 5.6
2017-Sep-21 00:30N 38°28' E 014°58'0 0.0
2017-Sep-20 23:59N 38°28' E 014°58'0 0.0
2017-Sep-20 23:20N 38°28' E 014°58'0 0.0
2017-Sep-20 22:40N 38°28' E 014°58'0 0.0
2017-Sep-20 22:28N 38°28' E 014°58'0 0.0
2017-Sep-20 21:58N 38°28' E 014°58'0 0.0
2017-Sep-20 20:45N 38°28' E 014°58'0 0.0
2017-Sep-20 20:27N 38°28' E 014°58'0 0.0
2017-Sep-20 19:42N 38°28' E 014°58'0 0.0
2017-Sep-20 19:29N 38°28' E 014°58'0 0.0
2017-Sep-20 18:44N 38°28' E 014°58'0 0.0
2017-Sep-20 18:29N 38°28' E 014°58'0 0.0
2017-Sep-20 17:59N 38°28' E 014°58'0 0.0
2017-Sep-20 17:28N 38°28' E 014°58'0 0.0
2017-Sep-20 16:58N 38°28' E 014°58'0 0.0
2017-Sep-20 16:22N 38°28' E 014°58'0 0.0
2017-Sep-20 15:45N 38°28' E 014°58'0 0.0
2017-Sep-20 15:15N 38°28' E 014°58'0 0.0
2017-Sep-20 14:57N 38°28' E 014°58'0 0.0
2017-Sep-20 13:20N 38°28' E 014°58'0 0.0
2017-Sep-20 12:59N 38°28' E 014°58'0 0.0
2017-Sep-20 12:16N 38°28' E 014°58'0 0.0
2017-Sep-20 11:55N 38°28' E 014°58'0 0.0
2017-Sep-20 09:23N 38°28' E 014°58'0 0.0
2017-Sep-20 08:17N 38°28' E 014°58'0 0.0
2017-Sep-20 07:59N 38°28' E 014°58'0 0.0
2017-Sep-20 07:28N 38°28' E 014°58'0 0.0
2017-Sep-20 06:58N 38°28' E 014°58'0 0.0
2017-Sep-20 06:28N 38°28' E 014°58'0 0.0
2017-Sep-20 05:15N 38°28' E 014°58'0 0.0
2017-Sep-20 04:57N 38°28' E 014°58'0 0.0
2017-Sep-20 04:26N 38°28' E 014°58'0 0.0
2017-Sep-20 03:56N 38°28' E 014°58'0 0.0
2017-Sep-20 03:20N 38°28' E 014°58'0 0.0
2017-Sep-20 02:46N 38°28' E 014°58'0 0.0
2017-Sep-20 02:25N 38°28' E 014°58'0 0.0
2017-Sep-20 01:55N 38°28' E 014°58'0 0.0
2017-Sep-20 01:19N 38°28' E 014°58'0 0.0
2017-Sep-20 01:00N 38°28' E 014°58'0 0.0
2017-Sep-20 00:30N 38°28' E 014°58'0 0.0
2017-Sep-20 00:00N 38°28' E 014°58'0 0.0
2017-Sep-19 23:23N 38°28' E 014°58'0 0.0
2017-Sep-19 22:59N 38°28' E 014°58'0 0.0
2017-Sep-19 22:29N 38°28' E 014°58'0 0.0
2017-Sep-19 22:00N 38°28' E 014°58'0 0.0
2017-Sep-19 21:30N 38°28' E 014°58'0 0.0
2017-Sep-19 21:00N 38°28' E 014°58'0 0.0
2017-Sep-19 20:27N 38°28' E 014°58'0 0.0
2017-Sep-19 20:00N 38°28' E 014°58'0 0.0
2017-Sep-19 19:29N 38°28' E 014°58'0 0.0
2017-Sep-19 19:00N 38°28' E 014°58'0 0.0
2017-Sep-19 18:30N 38°28' E 014°58'0 0.0
2017-Sep-19 18:00N 38°28' E 014°58'0 0.0
2017-Sep-19 17:30N 38°28' E 014°58'0 0.0
2017-Sep-19 16:59N 38°28' E 014°58'0 0.0
2017-Sep-19 16:30N 38°28' E 014°58'0 0.0
2017-Sep-19 16:00N 38°28' E 014°58'0 0.0
2017-Sep-19 15:30N 38°28' E 014°58'0 0.0
2017-Sep-19 15:00N 38°28' E 014°58'0 0.0
2017-Sep-19 14:30N 38°28' E 014°58'0 0.0
2017-Sep-19 14:00N 38°28' E 014°58'0 0.0
2017-Sep-19 13:30N 38°28' E 014°58'0 0.0
2017-Sep-19 13:00N 38°28' E 014°58'0 0.0
2017-Sep-19 12:29N 38°28' E 014°58'0 0.0
2017-Sep-19 12:00N 38°28' E 014°58'0 0.0
2017-Sep-19 11:30N 38°28' E 014°58'0 0.0
2017-Sep-19 11:00N 38°28' E 014°58'0 0.0
2017-Sep-19 10:30N 38°28' E 014°58'0 0.0
2017-Sep-19 10:00N 38°28' E 014°58'0 0.0
2017-Sep-19 09:30N 38°28' E 014°58'0 0.0
2017-Sep-19 09:00N 38°28' E 014°58'0 0.0
2017-Sep-19 08:30N 38°28' E 014°58'0 0.0
2017-Sep-19 08:00N 38°28' E 014°58'0 0.0
2017-Sep-19 07:23N 38°28' E 014°58'3 6.4
2017-Sep-19 07:00N 38°30' E 014°60'7 0.4
2017-Sep-18 13:33N 38°34' E 014°53'3 7.0
2017-Sep-18 13:07N 38°35' E 014°56'2 8.2
2017-Sep-18 12:55N 38°37' E 014°57'5 8.2
2017-Sep-18 12:21N 38°40' E 015°01'4 8.2
2017-Sep-18 11:53N 38°42' E 015°05'3 8.2
2017-Sep-18 11:28N 38°45' E 015°08'3 1.3
2017-Sep-18 08:49N 38°47' E 015°11'0 0.0
2017-Sep-18 08:28N 38°47' E 015°11'1 2.4
2017-Sep-18 07:56N 38°46' E 015°11'3 7.2
2017-Sep-18 07:30N 38°44' E 015°14'4 7.2
2017-Sep-18 07:00N 38°42' E 015°18'4 7.3
2017-Sep-18 06:30N 38°40' E 015°22'4 7.5
2017-Sep-18 05:59N 38°39' E 015°27'4 7.5
2017-Sep-18 05:28N 38°37' E 015°31'4 7.7
2017-Sep-18 05:00N 38°35' E 015°35'4 7.4
2017-Sep-18 04:30N 38°33' E 015°39'3 7.1
2017-Sep-18 04:00N 38°32' E 015°43'3 6.9
2017-Sep-18 03:30N 38°30' E 015°47'3 6.7
2017-Sep-18 03:00N 38°28' E 015°50'3 6.5
2017-Sep-18 02:30N 38°27' E 015°54'0 0.0
2017-Sep-17 17:40N 38°27' E 015°54'0 0.0
2017-Sep-17 17:29N 38°27' E 015°54'3 5.9
2017-Sep-17 17:00N 38°27' E 015°51'1 1.6
2017-Sep-17 16:28N 38°28' E 015°50'3 6.6
2017-Sep-17 16:00N 38°28' E 015°46'4 8.4
2017-Sep-17 15:30N 38°28' E 015°40'4 8.6
2017-Sep-17 15:00N 38°29' E 015°35'4 8.8
2017-Sep-17 14:30N 38°29' E 015°29'5 9.0
2017-Sep-17 13:58N 38°29' E 015°23'4 9.0
2017-Sep-17 13:30N 38°30' E 015°18'4 8.9
2017-Sep-17 13:00N 38°31' E 015°12'5 8.7
2017-Sep-17 12:29N 38°31' E 015°07'4 8.9
2017-Sep-17 12:00N 38°32' E 015°01'21 3.0
2017-Sep-17 04:58N 38°33' E 014°34'1 0.1
2017-Sep-16 13:50N 38°34' E 014°35'24 8.0
2017-Sep-16 10:51N 38°58' E 014°33'9 7.6
2017-Sep-16 09:36N 39°07' E 014°31'1 7.3
2017-Sep-16 09:24N 39°09' E 014°30'81 7.1
2017-Sep-15 22:02N 40°28' E 014°16'0 7.8
2017-Sep-15 22:00N 40°29' E 014°16'4 8.2
2017-Sep-15 21:30N 40°33' E 014°17'15 8.2
2017-Sep-15 19:38N 40°48' E 014°17'2 0.2
2017-Sep-15 06:54N 40°50' E 014°16'133 5.7
2017-Sep-14 07:49N 38°41' E 014°55'  
Track history (hours):
 
Tides and Currents Weather Stations Pressure Air Temp Water Temp Dewpoint Dewpoint Depression Visibility Wind Speed Wind Dir Waves Ship Positions

Antonello

Last reported at 2017-Sep-24 07:42 UTC. Time now 2017-Sep-24 14:02 UTC.
Position N 38°27' E 015°54'.

Length 70 m; draft 4.2 m.

Type: Ship. MMSI: 247422000.

Date/timePositionNaut miles runAvg speedWind from/ knotsBaromVisibWave heightAir tempDewpointWater temp
2017-Sep-24 07:42N 38°27' E 015°54'9 6.1
2017-Sep-24 06:18N 38°30' E 015°44'3 8.0
2017-Sep-24 05:58N 38°31' E 015°41'4 7.7
2017-Sep-24 05:28N 38°32' E 015°36'4 7.9
2017-Sep-24 04:58N 38°33' E 015°32'4 8.5
2017-Sep-24 04:27N 38°34' E 015°26'4 8.4
2017-Sep-24 03:58N 38°36' E 015°21'4 8.5
2017-Sep-24 03:29N 38°37' E 015°16'5 8.5
2017-Sep-24 02:53N 38°38' E 015°10'3 8.2
2017-Sep-24 02:30N 38°39' E 015°06'12 0.2
2017-Sep-22 02:00N 38°28' E 014°59'0 0.0
2017-Sep-22 01:29N 38°28' E 014°59'0 0.0
2017-Sep-22 01:00N 38°28' E 014°59'0 0.0
2017-Sep-22 00:29N 38°28' E 014°59'0 0.0
2017-Sep-21 23:59N 38°28' E 014°59'0 0.0
2017-Sep-21 23:30N 38°28' E 014°59'0 0.0
2017-Sep-21 23:00N 38°28' E 014°59'0 0.0
2017-Sep-21 22:30N 38°28' E 014°59'0 0.0
2017-Sep-21 21:51N 38°28' E 014°59'0 0.0
2017-Sep-21 21:29N 38°28' E 014°59'0 0.0
2017-Sep-21 21:00N 38°28' E 014°59'0 0.4
2017-Sep-21 20:28N 38°28' E 014°58'0 0.6
2017-Sep-21 20:00N 38°28' E 014°58'4 7.4
2017-Sep-21 19:30N 38°27' E 015°03'4 7.6
2017-Sep-21 19:00N 38°27' E 015°08'4 7.6
2017-Sep-21 18:31N 38°27' E 015°13'4 7.5
2017-Sep-21 18:00N 38°27' E 015°17'4 7.4
2017-Sep-21 17:30N 38°27' E 015°22'4 7.3
2017-Sep-21 17:00N 38°28' E 015°27'4 7.3
2017-Sep-21 16:30N 38°28' E 015°31'4 7.4
2017-Sep-21 16:00N 38°28' E 015°36'4 7.7
2017-Sep-21 15:30N 38°28' E 015°41'4 7.3
2017-Sep-21 15:00N 38°28' E 015°46'4 7.1
2017-Sep-21 14:30N 38°27' E 015°50'3 6.3
2017-Sep-21 14:00N 38°27' E 015°54'0 0.0
2017-Sep-21 13:29N 38°27' E 015°54'0 0.0
2017-Sep-21 12:55N 38°27' E 015°54'0 0.0
2017-Sep-21 12:25N 38°27' E 015°54'0 0.0
2017-Sep-21 11:59N 38°27' E 015°54'0 0.0
2017-Sep-21 11:25N 38°27' E 015°54'0 0.0
2017-Sep-21 10:51N 38°27' E 015°54'0 0.0
2017-Sep-21 10:21N 38°27' E 015°54'0 0.0
2017-Sep-21 09:59N 38°27' E 015°54'0 0.0
2017-Sep-21 09:18N 38°27' E 015°54'0 0.0
2017-Sep-21 08:48N 38°27' E 015°54'0 0.0
2017-Sep-21 08:29N 38°27' E 015°54'0 0.0
2017-Sep-21 07:57N 38°27' E 015°54'0 0.0
2017-Sep-21 07:30N 38°27' E 015°54'0 0.0
2017-Sep-21 07:00N 38°27' E 015°54'0 0.6
2017-Sep-21 06:30N 38°27' E 015°54'2 3.3
2017-Sep-21 05:59N 38°27' E 015°52'2 3.4
2017-Sep-21 05:30N 38°27' E 015°50'3 5.7
2017-Sep-21 05:00N 38°27' E 015°46'4 8.5
2017-Sep-21 04:30N 38°27' E 015°41'4 8.5
2017-Sep-21 04:00N 38°27' E 015°35'4 8.7
2017-Sep-21 03:30N 38°27' E 015°30'4 8.8
2017-Sep-21 03:00N 38°27' E 015°24'4 8.8
2017-Sep-21 02:30N 38°28' E 015°18'5 9.1
2017-Sep-21 01:59N 38°28' E 015°12'5 8.9
2017-Sep-21 01:27N 38°28' E 015°06'4 8.8
2017-Sep-21 01:00N 38°28' E 015°01'3 5.6
2017-Sep-21 00:30N 38°28' E 014°58'0 0.0
2017-Sep-20 23:59N 38°28' E 014°58'0 0.0
2017-Sep-20 23:20N 38°28' E 014°58'0 0.0
2017-Sep-20 22:40N 38°28' E 014°58'0 0.0
2017-Sep-20 22:28N 38°28' E 014°58'0 0.0
2017-Sep-20 21:58N 38°28' E 014°58'0 0.0
2017-Sep-20 20:45N 38°28' E 014°58'0 0.0
2017-Sep-20 20:27N 38°28' E 014°58'0 0.0
2017-Sep-20 19:42N 38°28' E 014°58'0 0.0
2017-Sep-20 19:29N 38°28' E 014°58'0 0.0
2017-Sep-20 18:44N 38°28' E 014°58'0 0.0
2017-Sep-20 18:29N 38°28' E 014°58'0 0.0
2017-Sep-20 17:59N 38°28' E 014°58'0 0.0
2017-Sep-20 17:28N 38°28' E 014°58'0 0.0
2017-Sep-20 16:58N 38°28' E 014°58'0 0.0
2017-Sep-20 16:22N 38°28' E 014°58'0 0.0
2017-Sep-20 15:45N 38°28' E 014°58'0 0.0
2017-Sep-20 15:15N 38°28' E 014°58'0 0.0
2017-Sep-20 14:57N 38°28' E 014°58'0 0.0
2017-Sep-20 13:20N 38°28' E 014°58'0 0.0
2017-Sep-20 12:59N 38°28' E 014°58'0 0.0
2017-Sep-20 12:16N 38°28' E 014°58'0 0.0
2017-Sep-20 11:55N 38°28' E 014°58'0 0.0
2017-Sep-20 09:23N 38°28' E 014°58'0 0.0
2017-Sep-20 08:17N 38°28' E 014°58'0 0.0
2017-Sep-20 07:59N 38°28' E 014°58'0 0.0
2017-Sep-20 07:28N 38°28' E 014°58'0 0.0
2017-Sep-20 06:58N 38°28' E 014°58'0 0.0
2017-Sep-20 06:28N 38°28' E 014°58'0 0.0
2017-Sep-20 05:15N 38°28' E 014°58'0 0.0
2017-Sep-20 04:57N 38°28' E 014°58'0 0.0
2017-Sep-20 04:26N 38°28' E 014°58'0 0.0
2017-Sep-20 03:56N 38°28' E 014°58'0 0.0
2017-Sep-20 03:20N 38°28' E 014°58'0 0.0
2017-Sep-20 02:46N 38°28' E 014°58'0 0.0
2017-Sep-20 02:25N 38°28' E 014°58'0 0.0
2017-Sep-20 01:55N 38°28' E 014°58'0 0.0
2017-Sep-20 01:19N 38°28' E 014°58'0 0.0
2017-Sep-20 01:00N 38°28' E 014°58'0 0.0
2017-Sep-20 00:30N 38°28' E 014°58'0 0.0
2017-Sep-20 00:00N 38°28' E 014°58'0 0.0
2017-Sep-19 23:23N 38°28' E 014°58'0 0.0
2017-Sep-19 22:59N 38°28' E 014°58'0 0.0
2017-Sep-19 22:29N 38°28' E 014°58'0 0.0
2017-Sep-19 22:00N 38°28' E 014°58'0 0.0
2017-Sep-19 21:30N 38°28' E 014°58'0 0.0
2017-Sep-19 21:00N 38°28' E 014°58'0 0.0
2017-Sep-19 20:27N 38°28' E 014°58'0 0.0
2017-Sep-19 20:00N 38°28' E 014°58'0 0.0
2017-Sep-19 19:29N 38°28' E 014°58'0 0.0
2017-Sep-19 19:00N 38°28' E 014°58'0 0.0
2017-Sep-19 18:30N 38°28' E 014°58'0 0.0
2017-Sep-19 18:00N 38°28' E 014°58'0 0.0
2017-Sep-19 17:30N 38°28' E 014°58'0 0.0
2017-Sep-19 16:59N 38°28' E 014°58'0 0.0
2017-Sep-19 16:30N 38°28' E 014°58'0 0.0
2017-Sep-19 16:00N 38°28' E 014°58'0 0.0
2017-Sep-19 15:30N 38°28' E 014°58'0 0.0
2017-Sep-19 15:00N 38°28' E 014°58'0 0.0
2017-Sep-19 14:30N 38°28' E 014°58'0 0.0
2017-Sep-19 14:00N 38°28' E 014°58'0 0.0
2017-Sep-19 13:30N 38°28' E 014°58'0 0.0
2017-Sep-19 13:00N 38°28' E 014°58'0 0.0
2017-Sep-19 12:29N 38°28' E 014°58'0 0.0
2017-Sep-19 12:00N 38°28' E 014°58'0 0.0
2017-Sep-19 11:30N 38°28' E 014°58'0 0.0
2017-Sep-19 11:00N 38°28' E 014°58'0 0.0
2017-Sep-19 10:30N 38°28' E 014°58'0 0.0
2017-Sep-19 10:00N 38°28' E 014°58'0 0.0
2017-Sep-19 09:30N 38°28' E 014°58'0 0.0
2017-Sep-19 09:00N 38°28' E 014°58'0 0.0
2017-Sep-19 08:30N 38°28' E 014°58'0 0.0
2017-Sep-19 08:00N 38°28' E 014°58'0 0.0
2017-Sep-19 07:23N 38°28' E 014°58'3 6.4
2017-Sep-19 07:00N 38°30' E 014°60'7 0.4
2017-Sep-18 13:33N 38°34' E 014°53'3 7.0
2017-Sep-18 13:07N 38°35' E 014°56'2 8.2
2017-Sep-18 12:55N 38°37' E 014°57'5 8.2
2017-Sep-18 12:21N 38°40' E 015°01'4 8.2
2017-Sep-18 11:53N 38°42' E 015°05'3 8.2
2017-Sep-18 11:28N 38°45' E 015°08'3 1.3
2017-Sep-18 08:49N 38°47' E 015°11'0 0.0
2017-Sep-18 08:28N 38°47' E 015°11'1 2.4
2017-Sep-18 07:56N 38°46' E 015°11'3 7.2
2017-Sep-18 07:30N 38°44' E 015°14'4 7.2
2017-Sep-18 07:00N 38°42' E 015°18'4 7.3
2017-Sep-18 06:30N 38°40' E 015°22'4 7.5
2017-Sep-18 05:59N 38°39' E 015°27'4 7.5
2017-Sep-18 05:28N 38°37' E 015°31'4 7.7
2017-Sep-18 05:00N 38°35' E 015°35'4 7.4
2017-Sep-18 04:30N 38°33' E 015°39'3 7.1
2017-Sep-18 04:00N 38°32' E 015°43'3 6.9
2017-Sep-18 03:30N 38°30' E 015°47'3 6.7
2017-Sep-18 03:00N 38°28' E 015°50'3 6.5
2017-Sep-18 02:30N 38°27' E 015°54'0 0.0
2017-Sep-17 17:40N 38°27' E 015°54'0 0.0
2017-Sep-17 17:29N 38°27' E 015°54'3 5.9
2017-Sep-17 17:00N 38°27' E 015°51'1 1.6
2017-Sep-17 16:28N 38°28' E 015°50'3 6.6
2017-Sep-17 16:00N 38°28' E 015°46'4 8.4
2017-Sep-17 15:30N 38°28' E 015°40'4 8.6
2017-Sep-17 15:00N 38°29' E 015°35'4 8.8
2017-Sep-17 14:30N 38°29' E 015°29'5 9.0
2017-Sep-17 13:58N 38°29' E 015°23'4 9.0
2017-Sep-17 13:30N 38°30' E 015°18'4 8.9
2017-Sep-17 13:00N 38°31' E 015°12'5 8.7
2017-Sep-17 12:29N 38°31' E 015°07'4 8.9
2017-Sep-17 12:00N 38°32' E 015°01'21 3.0
2017-Sep-17 04:58N 38°33' E 014°34'1 0.1
2017-Sep-16 13:50N 38°34' E 014°35'24 8.0
2017-Sep-16 10:51N 38°58' E 014°33'9 7.6
2017-Sep-16 09:36N 39°07' E 014°31'1 7.3
2017-Sep-16 09:24N 39°09' E 014°30'81 7.1
2017-Sep-15 22:02N 40°28' E 014°16'0 7.8
2017-Sep-15 22:00N 40°29' E 014°16'4 8.2
2017-Sep-15 21:30N 40°33' E 014°17'15 8.2
2017-Sep-15 19:38N 40°48' E 014°17'2 0.2
2017-Sep-15 06:54N 40°50' E 014°16'133 5.7
2017-Sep-14 07:49N 38°41' E 014°55'  

Dump ship's entire track history